createdAt,value
2022-12-31T00:01:26.463Z,98886.38
2022-12-31T00:03:53.535Z,98915.75
2022-12-31T00:06:31.831Z,98922.56
2022-12-31T00:09:01.977Z,98930.72
2022-12-31T00:11:30.350Z,98933.94
2022-12-31T00:13:58.242Z,98935.50
2022-12-31T00:16:28.164Z,98941.06
2022-12-31T00:18:59.279Z,98958.06
2022-12-31T00:21:27.911Z,98969.81
2022-12-31T00:23:55.321Z,98980.66
2022-12-31T00:26:26.941Z,98991.56
2022-12-31T00:28:55.498Z,99004.50
2022-12-31T00:31:25.012Z,99011.97
2022-12-31T00:33:52.267Z,99022.00
2022-12-31T00:36:33.610Z,99022.34
2022-12-31T00:39:01.761Z,99042.91
2022-12-31T00:41:29.480Z,99037.91
2022-12-31T00:43:57.456Z,99045.09
2022-12-31T00:46:25.257Z,99050.84
2022-12-31T00:48:52.508Z,99052.69
2022-12-31T00:51:21.991Z,99054.72
2022-12-31T00:53:49.168Z,99065.97
2022-12-31T00:56:22.004Z,99070.72
2022-12-31T00:58:49.114Z,99069.66
2022-12-31T01:01:20.985Z,99077.81
2022-12-31T01:03:50.382Z,99077.97
2022-12-31T01:06:21.081Z,99085.31
2022-12-31T01:08:49.476Z,99085.13
2022-12-31T01:11:19.434Z,99103.66
2022-12-31T01:13:47.734Z,99107.75
2022-12-31T01:16:15.027Z,99102.25
2022-12-31T01:18:42.229Z,99106.63
2022-12-31T01:21:11.064Z,99123.31
2022-12-31T01:23:37.989Z,99127.09
2022-12-31T01:26:07.440Z,99137.47
2022-12-31T01:28:34.785Z,99145.44
2022-12-31T01:31:10.222Z,99147.47
2022-12-31T01:33:37.454Z,99172.41
2022-12-31T01:36:23.577Z,99169.84
2022-12-31T01:38:53.564Z,99191.50
2022-12-31T01:41:23.289Z,99191.81
2022-12-31T01:43:54.376Z,99215.81
2022-12-31T01:46:33.829Z,99204.47
2022-12-31T01:49:06.609Z,99205.31
2022-12-31T01:51:35.238Z,99222.09
2022-12-31T01:54:05.154Z,99216.88
2022-12-31T01:56:33.556Z,99214.88
2022-12-31T01:59:00.781Z,99229.47
2022-12-31T02:01:33.048Z,99235.06
2022-12-31T02:04:06.961Z,99236.94
2022-12-31T02:06:42.973Z,99238.25
2022-12-31T02:09:11.323Z,99241.84
2022-12-31T02:11:38.304Z,99242.69
2022-12-31T02:14:15.163Z,99250.38
2022-12-31T02:16:56.915Z,99259.38
2022-12-31T02:20:02.286Z,99264.44
2022-12-31T02:22:28.923Z,99266.00
2022-12-31T02:25:21.104Z,99268.16
2022-12-31T02:28:12.092Z,99279.19
2022-12-31T02:30:42.304Z,99287.88
2022-12-31T02:33:28.847Z,99289.16
2022-12-31T02:36:11.600Z,99299.22
2022-12-31T02:38:46.019Z,99290.28
2022-12-31T02:41:34.308Z,99293.53
2022-12-31T02:44:01.087Z,99306.22
2022-12-31T02:46:49.314Z,99313.75
2022-12-31T02:49:28.437Z,99309.09
2022-12-31T02:52:03.079Z,99313.56
2022-12-31T02:54:40.431Z,99326.06
2022-12-31T02:57:30.873Z,99320.81
2022-12-31T03:00:25.369Z,99316.19
2022-12-31T03:02:54.024Z,99328.66
2022-12-31T03:05:24.986Z,99336.28
2022-12-31T03:07:51.776Z,99333.00
2022-12-31T03:10:18.514Z,99348.38
2022-12-31T03:12:48.803Z,99346.69
2022-12-31T03:15:30.666Z,99345.78
2022-12-31T03:18:05.844Z,99352.81
2022-12-31T03:20:57.263Z,99355.25
2022-12-31T03:23:30.075Z,99361.25
2022-12-31T03:25:58.551Z,99357.63
2022-12-31T03:28:28.071Z,99369.41
2022-12-31T03:30:58.340Z,99366.22
2022-12-31T03:33:26.029Z,99367.97
2022-12-31T03:35:53.779Z,99369.56
2022-12-31T03:38:20.750Z,99361.97
2022-12-31T03:40:52.960Z,99370.13
2022-12-31T03:43:20.449Z,99373.84
2022-12-31T03:45:51.895Z,99384.56
2022-12-31T03:48:19.590Z,99388.31
2022-12-31T03:50:46.309Z,99373.69
2022-12-31T03:53:13.631Z,99368.03
2022-12-31T03:55:40.584Z,99364.31
2022-12-31T03:58:07.406Z,99363.81
2022-12-31T04:00:34.468Z,99359.78
2022-12-31T04:03:01.488Z,99369.50
2022-12-31T04:05:28.431Z,99364.28
2022-12-31T04:07:55.921Z,99356.69
2022-12-31T04:10:22.894Z,99377.28
2022-12-31T04:12:49.895Z,99383.16
2022-12-31T04:15:19.714Z,99383.31
2022-12-31T04:17:47.305Z,99383.88
2022-12-31T04:20:15.872Z,99376.47
2022-12-31T04:22:44.149Z,99380.72
2022-12-31T04:25:11.745Z,99388.47
2022-12-31T04:27:45.749Z,99396.31
2022-12-31T04:30:14.080Z,99388.47
2022-12-31T04:32:41.903Z,99381.28
2022-12-31T04:35:11.150Z,99375.56
2022-12-31T04:37:38.423Z,99374.84
2022-12-31T04:40:07.172Z,99378.88
2022-12-31T04:42:35.011Z,99387.34
2022-12-31T04:45:01.730Z,99385.31
2022-12-31T04:47:28.629Z,99371.03
2022-12-31T04:49:55.299Z,99390.75
2022-12-31T04:52:22.739Z,99389.59
2022-12-31T04:54:49.731Z,99396.19
2022-12-31T04:57:16.567Z,99399.19
2022-12-31T04:59:43.305Z,99387.03
2022-12-31T05:02:10.141Z,99381.88
2022-12-31T05:04:37.028Z,99372.00
2022-12-31T05:07:03.925Z,99378.44
2022-12-31T05:09:31.118Z,99361.66
2022-12-31T05:11:58.053Z,99361.81
2022-12-31T05:14:25.040Z,99347.59
2022-12-31T05:16:52.508Z,99347.38
2022-12-31T05:19:19.384Z,99344.38
2022-12-31T05:22:06.002Z,99338.38
2022-12-31T05:24:32.743Z,99323.34
2022-12-31T05:26:59.988Z,99316.81
2022-12-31T05:29:26.752Z,99310.78
2022-12-31T05:31:53.538Z,99302.88
2022-12-31T05:34:20.525Z,99299.16
2022-12-31T05:36:47.234Z,99287.00
2022-12-31T05:39:14.163Z,99272.00
2022-12-31T05:41:40.876Z,99269.75
2022-12-31T05:44:07.629Z,99271.00
2022-12-31T05:46:34.358Z,99256.81
2022-12-31T05:49:01.230Z,99252.56
2022-12-31T05:51:27.901Z,99258.81
2022-12-31T05:53:54.636Z,99265.00
2022-12-31T05:56:21.395Z,99251.16
2022-12-31T05:58:48.088Z,99237.13
2022-12-31T06:01:14.980Z,99229.94
2022-12-31T06:03:41.913Z,99236.56
2022-12-31T06:06:08.654Z,99228.63
2022-12-31T06:08:35.296Z,99225.59
2022-12-31T06:11:02.062Z,99231.22
2022-12-31T06:13:29.123Z,99221.84
2022-12-31T06:15:55.857Z,99215.19
2022-12-31T06:18:22.620Z,99213.38
2022-12-31T06:20:49.369Z,99213.94
2022-12-31T06:23:16.092Z,99214.06
2022-12-31T06:25:42.863Z,99214.28
2022-12-31T06:28:12.174Z,99213.53
2022-12-31T06:30:44.698Z,99211.63
2022-12-31T06:33:11.396Z,99209.38
2022-12-31T06:35:38.099Z,99206.50
2022-12-31T06:38:04.793Z,99212.19
2022-12-31T06:40:31.597Z,99201.06
2022-12-31T06:43:00.336Z,99196.06
2022-12-31T06:45:27.539Z,99197.00
2022-12-31T06:47:54.241Z,99188.16
2022-12-31T06:50:20.967Z,99189.47
2022-12-31T06:52:47.827Z,99168.81
2022-12-31T06:55:15.051Z,99158.03
2022-12-31T06:57:42.198Z,99173.94
2022-12-31T07:00:10.808Z,99167.13
2022-12-31T07:03:16.109Z,99171.66
2022-12-31T07:05:50.960Z,99160.88
2022-12-31T07:08:54.943Z,99135.38
2022-12-31T07:11:39.108Z,99149.28
2022-12-31T07:14:11.898Z,99154.41
2022-12-31T07:16:51.982Z,99143.59
2022-12-31T07:19:35.817Z,99139.56
2022-12-31T07:22:02.942Z,99137.28
2022-12-31T07:24:30.001Z,99129.69
2022-12-31T07:27:11.878Z,99135.88
2022-12-31T07:30:02.919Z,99139.44
2022-12-31T07:32:58.777Z,99138.44
2022-12-31T07:35:35.384Z,99144.19
2022-12-31T07:38:24.291Z,99151.00
2022-12-31T07:41:10.368Z,99150.94
2022-12-31T07:43:37.322Z,99155.78
2022-12-31T07:46:07.089Z,99159.09
2022-12-31T07:48:34.060Z,99146.00
2022-12-31T07:51:01.272Z,99153.91
2022-12-31T07:53:28.485Z,99175.72
2022-12-31T07:56:03.802Z,99170.34
2022-12-31T07:58:45.617Z,99184.75
2022-12-31T08:01:14.517Z,99192.16
2022-12-31T08:03:59.767Z,99188.75
2022-12-31T08:06:29.546Z,99191.66
2022-12-31T08:08:59.676Z,99187.03
2022-12-31T08:11:38.252Z,99173.13
2022-12-31T08:14:10.189Z,99181.53
2022-12-31T08:16:37.344Z,99176.81
2022-12-31T08:19:04.659Z,99169.72
2022-12-31T08:21:37.487Z,99173.38
2022-12-31T08:24:47.034Z,99163.06
2022-12-31T08:27:38.699Z,99161.19
2022-12-31T08:30:09.960Z,99181.22
2022-12-31T08:32:55.007Z,99186.16
2022-12-31T08:35:27.693Z,99188.16
2022-12-31T08:38:06.523Z,99186.97
2022-12-31T08:40:39.519Z,99187.53
2022-12-31T08:43:32.837Z,99178.56
2022-12-31T08:46:00.422Z,99178.69
2022-12-31T08:48:42.064Z,99183.09
2022-12-31T08:51:15.179Z,99199.28
2022-12-31T08:53:42.166Z,99201.75
2022-12-31T08:56:21.638Z,99203.91
2022-12-31T08:59:21.895Z,99212.38
2022-12-31T09:01:54.752Z,99215.34
2022-12-31T09:04:59.851Z,99211.38
2022-12-31T09:07:45.630Z,99218.69
2022-12-31T09:10:23.688Z,99208.66
2022-12-31T09:13:02.626Z,99219.69
2022-12-31T09:15:46.503Z,99222.19
2022-12-31T09:18:13.709Z,99220.84
2022-12-31T09:20:43.866Z,99217.69
2022-12-31T09:23:12.538Z,99224.34
2022-12-31T09:25:46.957Z,99228.63
2022-12-31T09:28:19.721Z,99226.38
2022-12-31T09:30:55.479Z,99224.34
2022-12-31T09:33:51.311Z,99229.09
2022-12-31T09:36:30.455Z,99229.72
2022-12-31T09:39:09.672Z,99238.16
2022-12-31T09:42:10.629Z,99234.22
2022-12-31T09:45:05.140Z,99236.53
2022-12-31T09:47:53.929Z,99243.59
2022-12-31T09:50:46.435Z,99244.31
2022-12-31T09:53:22.346Z,99241.91
2022-12-31T09:55:54.990Z,99241.59
2022-12-31T09:58:40.264Z,99232.03
2022-12-31T10:01:28.231Z,99235.06
2022-12-31T10:04:07.166Z,99233.84
2022-12-31T10:06:55.520Z,99234.41
2022-12-31T10:09:53.260Z,99228.81
2022-12-31T10:12:57.276Z,99222.19
2022-12-31T10:15:36.022Z,99219.16
2022-12-31T10:18:41.036Z,99208.97
2022-12-31T10:21:40.062Z,99216.13
2022-12-31T10:24:45.701Z,99209.38
2022-12-31T10:27:18.303Z,99199.91
2022-12-31T10:30:13.153Z,99190.81
2022-12-31T10:32:45.012Z,99193.59
2022-12-31T10:35:15.130Z,99187.53
2022-12-31T10:38:04.797Z,99167.50
2022-12-31T10:41:28.153Z,99173.88
2022-12-31T10:44:15.988Z,99190.19
2022-12-31T10:46:42.585Z,99176.44
2022-12-31T10:49:09.242Z,99178.31
2022-12-31T10:51:48.106Z,99185.75
2022-12-31T10:54:30.009Z,99177.75
2022-12-31T10:57:22.881Z,99183.19
2022-12-31T11:00:27.554Z,99181.22
2022-12-31T11:03:29.796Z,99176.16
2022-12-31T11:06:11.725Z,99173.19
2022-12-31T11:09:13.993Z,99174.00
2022-12-31T11:11:52.849Z,99182.38
2022-12-31T11:14:50.582Z,99181.50
2022-12-31T11:17:41.647Z,99178.63
2022-12-31T11:20:17.427Z,99181.41
2022-12-31T11:22:57.376Z,99166.91
2022-12-31T11:26:08.466Z,99168.75
2022-12-31T11:28:41.562Z,99178.78
2022-12-31T11:31:14.246Z,99186.75
2022-12-31T11:34:03.895Z,99173.75
2022-12-31T11:36:51.812Z,99156.34
2022-12-31T11:39:46.188Z,99154.72
2022-12-31T11:42:44.093Z,99137.75
2022-12-31T11:45:10.667Z,99160.22
2022-12-31T11:48:20.201Z,99147.78
2022-12-31T11:50:46.799Z,99126.50
2022-12-31T11:53:39.701Z,99114.91
2022-12-31T11:56:24.824Z,99106.94
2022-12-31T11:58:53.838Z,99111.50
2022-12-31T12:01:27.472Z,99100.50
2022-12-31T12:03:54.272Z,99099.41
2022-12-31T12:06:27.602Z,99095.50
2022-12-31T12:09:04.533Z,99075.44
2022-12-31T12:11:35.484Z,99065.94
2022-12-31T12:14:19.430Z,99047.63
2022-12-31T12:16:46.494Z,99041.94
2022-12-31T12:19:19.427Z,99040.31
2022-12-31T12:21:48.655Z,99010.28
2022-12-31T12:24:25.003Z,99018.38
2022-12-31T12:26:51.995Z,99022.75
2022-12-31T12:29:26.378Z,99019.88
2022-12-31T12:32:06.051Z,99001.22
2022-12-31T12:34:39.458Z,99004.34
2022-12-31T12:37:33.107Z,98992.81
2022-12-31T12:40:19.463Z,98981.63
2022-12-31T12:42:48.594Z,98980.84
2022-12-31T12:45:19.693Z,98969.09
2022-12-31T12:47:49.143Z,98957.06
2022-12-31T12:50:23.416Z,98967.44
2022-12-31T12:53:16.488Z,98972.25
2022-12-31T12:55:53.695Z,98973.97
2022-12-31T12:58:33.403Z,98978.38
2022-12-31T13:01:34.995Z,98965.50
2022-12-31T13:07:25.162Z,98976.72
2022-12-31T13:10:12.684Z,98967.69
2022-12-31T13:13:22.906Z,98972.13
2022-12-31T13:15:48.764Z,98966.84
2022-12-31T13:18:49.902Z,98975.72
2022-12-31T13:21:19.631Z,98970.59
2022-12-31T13:24:07.840Z,98988.31
2022-12-31T13:26:52.680Z,98975.38
2022-12-31T13:29:24.138Z,98978.94
2022-12-31T13:31:52.812Z,98971.94
2022-12-31T13:34:26.264Z,98967.72
2022-12-31T13:36:58.175Z,98975.53
2022-12-31T13:39:31.399Z,98987.78
2022-12-31T13:42:14.691Z,98966.81
2022-12-31T13:44:51.815Z,98987.09
2022-12-31T13:47:29.705Z,99010.28
2022-12-31T13:50:02.469Z,99005.66
2022-12-31T13:52:41.322Z,99002.25
2022-12-31T13:55:32.362Z,99022.53
2022-12-31T13:58:16.382Z,99017.78
2022-12-31T14:01:21.767Z,99023.91
2022-12-31T14:04:02.548Z,99037.34
2022-12-31T14:06:36.434Z,99063.25
2022-12-31T14:09:04.716Z,99063.25
2022-12-31T14:11:49.778Z,99075.19
2022-12-31T14:14:25.771Z,99079.78
2022-12-31T14:16:55.902Z,99068.88
2022-12-31T14:19:47.087Z,99075.69
2022-12-31T14:22:45.586Z,99082.84
2022-12-31T14:25:25.685Z,99084.03
2022-12-31T14:27:55.137Z,99085.75
2022-12-31T14:30:25.109Z,99094.09
2022-12-31T14:33:17.341Z,99108.59
2022-12-31T14:36:00.432Z,99101.44
2022-12-31T14:38:39.608Z,99124.97
2022-12-31T14:41:19.943Z,99133.81
2022-12-31T14:44:03.779Z,99131.44
2022-12-31T14:47:11.580Z,99156.47
2022-12-31T14:50:03.145Z,99174.91
2022-12-31T14:52:35.670Z,99180.53
2022-12-31T14:55:23.402Z,99188.38
2022-12-31T15:00:40.229Z,99214.78
2022-12-31T15:03:23.798Z,99233.88
2022-12-31T15:05:54.249Z,99249.25
2022-12-31T15:08:49.250Z,99237.47
2022-12-31T15:11:28.062Z,99269.19
2022-12-31T15:14:00.685Z,99276.19
2022-12-31T15:16:27.355Z,99288.66
2022-12-31T15:19:30.561Z,99301.41
2022-12-31T15:22:03.236Z,99301.13
2022-12-31T15:24:30.885Z,99310.69
2022-12-31T15:27:06.828Z,99332.66
2022-12-31T15:29:36.964Z,99339.50
2022-12-31T15:32:07.817Z,99352.47
2022-12-31T15:34:36.640Z,99371.25
2022-12-31T15:37:35.882Z,99392.88
2022-12-31T15:40:20.890Z,99400.56
2022-12-31T15:42:55.556Z,99414.88
2022-12-31T15:45:37.424Z,99435.22
2022-12-31T15:48:19.787Z,99439.09
2022-12-31T15:50:47.527Z,99442.69
2022-12-31T15:53:34.870Z,99452.59
2022-12-31T15:56:02.571Z,99449.69
2022-12-31T15:58:37.761Z,99472.50
2022-12-31T16:01:24.206Z,99479.00
2022-12-31T16:03:57.992Z,99483.75
2022-12-31T16:06:28.377Z,99495.66
2022-12-31T16:08:55.751Z,99490.19
2022-12-31T16:11:23.522Z,99477.56
2022-12-31T16:13:54.111Z,99496.28
2022-12-31T16:16:20.862Z,99501.06
2022-12-31T16:18:50.135Z,99492.34
2022-12-31T16:21:27.895Z,99501.72
2022-12-31T16:24:01.406Z,99518.06
2022-12-31T16:26:33.155Z,99524.50
2022-12-31T16:29:00.814Z,99519.75
2022-12-31T16:31:29.908Z,99527.75
2022-12-31T16:34:36.455Z,99531.34
2022-12-31T16:37:06.309Z,99536.44
2022-12-31T16:40:09.928Z,99536.19
2022-12-31T16:42:44.136Z,99536.47
2022-12-31T16:45:29.890Z,99535.22
2022-12-31T16:47:59.133Z,99540.97
2022-12-31T16:50:26.457Z,99513.72
2022-12-31T16:53:04.639Z,99509.91
2022-12-31T16:55:33.226Z,99491.16
2022-12-31T16:58:06.923Z,99478.53
2022-12-31T17:00:34.911Z,99471.69
2022-12-31T17:03:27.499Z,99466.31
2022-12-31T17:06:06.508Z,99464.34
2022-12-31T17:08:54.768Z,99446.19
2022-12-31T17:11:31.421Z,99445.03
2022-12-31T17:14:07.288Z,99428.81
2022-12-31T17:16:36.435Z,99426.66
2022-12-31T17:19:04.744Z,99414.28
2022-12-31T17:21:32.445Z,99431.47
2022-12-31T17:24:06.175Z,99429.44
2022-12-31T17:26:37.415Z,99421.13
2022-12-31T17:29:06.070Z,99432.34
2022-12-31T17:31:34.411Z,99408.84
2022-12-31T17:34:17.383Z,99412.72
2022-12-31T17:36:53.482Z,99403.72
2022-12-31T17:39:23.478Z,99395.16
2022-12-31T17:41:52.741Z,99391.56
2022-12-31T17:44:40.070Z,99377.50
2022-12-31T17:47:11.770Z,99363.88
2022-12-31T17:49:38.587Z,99374.06
2022-12-31T17:52:11.937Z,99359.59
2022-12-31T17:54:38.874Z,99347.53
2022-12-31T17:57:06.484Z,99346.75
2022-12-31T17:59:35.247Z,99336.69
2022-12-31T18:02:03.734Z,99336.31
2022-12-31T18:04:30.492Z,99333.78
2022-12-31T18:06:57.332Z,99329.00
2022-12-31T18:09:24.027Z,99322.81
2022-12-31T18:11:50.738Z,99324.22
2022-12-31T18:14:17.415Z,99299.28
2022-12-31T18:16:44.477Z,99297.50
2022-12-31T18:19:37.971Z,99287.56
2022-12-31T18:22:01.247Z,99283.13
2022-12-31T18:24:28.005Z,99284.28
2022-12-31T18:26:55.271Z,99275.28
2022-12-31T18:29:22.644Z,99276.44
2022-12-31T18:31:50.260Z,99272.25
2022-12-31T18:34:18.632Z,99276.78
2022-12-31T18:36:46.554Z,99266.09
2022-12-31T18:39:13.295Z,99257.72
2022-12-31T18:41:49.029Z,99248.53
2022-12-31T18:44:17.342Z,99251.25
2022-12-31T18:46:44.272Z,99230.97
2022-12-31T18:49:11.174Z,99239.16
2022-12-31T18:51:37.970Z,99247.47
2022-12-31T18:54:05.214Z,99256.31
2022-12-31T18:56:32.111Z,99226.78
2022-12-31T18:58:59.910Z,99239.53
2022-12-31T19:01:30.422Z,99237.50
2022-12-31T19:04:26.524Z,99259.03
2022-12-31T19:06:54.347Z,99235.75
2022-12-31T19:09:43.941Z,99230.66
2022-12-31T19:12:12.984Z,99222.28
2022-12-31T19:14:39.772Z,99205.78
2022-12-31T19:19:32.103Z,99207.59
2022-12-31T19:21:59.042Z,99186.84
2022-12-31T19:24:27.434Z,99183.44
2022-12-31T19:26:55.156Z,99195.00
2022-12-31T19:29:28.827Z,99184.97
2022-12-31T19:31:55.680Z,99180.94
2022-12-31T19:34:22.532Z,99187.22
2022-12-31T19:36:49.388Z,99191.81
2022-12-31T19:39:19.224Z,99180.56
2022-12-31T19:41:48.228Z,99185.50
2022-12-31T19:44:19.098Z,99180.69
2022-12-31T19:46:47.305Z,99185.31
2022-12-31T19:49:14.810Z,99174.38
2022-12-31T19:51:42.945Z,99171.66
2022-12-31T19:54:12.570Z,99157.03
2022-12-31T19:56:41.640Z,99150.72
2022-12-31T19:59:10.712Z,99152.94
2022-12-31T20:01:37.979Z,99147.31
2022-12-31T20:04:05.295Z,99144.97
2022-12-31T20:06:32.445Z,99154.53
2022-12-31T20:08:59.403Z,99149.41
2022-12-31T20:11:26.511Z,99131.38
2022-12-31T20:13:54.088Z,99138.50
2022-12-31T20:16:24.702Z,99127.66
2022-12-31T20:18:51.622Z,99129.00
2022-12-31T20:21:21.134Z,99118.78
2022-12-31T20:23:49.853Z,99115.06
2022-12-31T20:26:18.093Z,99126.81
2022-12-31T20:28:45.385Z,99108.78
2022-12-31T20:31:24.451Z,99088.03
2022-12-31T20:33:51.305Z,99088.16
2022-12-31T20:36:18.264Z,99089.53
2022-12-31T20:38:45.938Z,99082.44
2022-12-31T20:41:15.631Z,99090.94
2022-12-31T20:43:43.476Z,99108.63
2022-12-31T20:46:18.122Z,99107.84
2022-12-31T20:48:49.321Z,99107.53
2022-12-31T20:51:17.671Z,99096.94
2022-12-31T20:53:49.836Z,99092.19
2022-12-31T20:56:17.558Z,99093.88
2022-12-31T20:58:44.952Z,99100.34
2022-12-31T21:01:12.640Z,99090.97
2022-12-31T21:06:29.870Z,99085.75
2022-12-31T21:08:58.499Z,99080.84
2022-12-31T21:11:44.476Z,99073.03
2022-12-31T21:14:11.313Z,99087.00
2022-12-31T21:16:38.148Z,99099.91
2022-12-31T21:19:05.532Z,99079.19
2022-12-31T21:21:32.466Z,99083.13
2022-12-31T21:24:00.085Z,99076.84
2022-12-31T21:26:27.960Z,99069.38
2022-12-31T21:28:54.744Z,99063.72
2022-12-31T21:31:21.426Z,99063.72
2022-12-31T21:33:48.681Z,99056.75
2022-12-31T21:36:16.022Z,99062.34
2022-12-31T21:38:44.763Z,99057.44
2022-12-31T21:41:34.011Z,99049.94
2022-12-31T21:44:01.532Z,99043.28
2022-12-31T21:46:28.918Z,99041.44
2022-12-31T21:48:58.094Z,99037.69
2022-12-31T21:51:25.292Z,99033.94
2022-12-31T21:53:52.524Z,99035.81
2022-12-31T21:56:21.325Z,99034.09
2022-12-31T21:59:13.694Z,99026.78
2022-12-31T22:01:59.578Z,99018.97
2022-12-31T22:07:13.067Z,99029.53
2022-12-31T22:09:39.920Z,99024.06
2022-12-31T22:12:06.926Z,99022.03
2022-12-31T22:14:33.970Z,99024.41
2022-12-31T22:17:00.829Z,99013.69
2022-12-31T22:19:27.544Z,99012.69
2022-12-31T22:21:54.242Z,99015.06
2022-12-31T22:24:20.993Z,99004.97
2022-12-31T22:26:47.780Z,99003.28
2022-12-31T22:29:14.773Z,99009.41
2022-12-31T22:31:41.733Z,99017.09
2022-12-31T22:34:08.662Z,99018.47
2022-12-31T22:36:35.438Z,99008.91
2022-12-31T22:39:02.334Z,99006.34
2022-12-31T22:41:29.285Z,98997.16
2022-12-31T22:44:03.665Z,98999.72
2022-12-31T22:46:31.946Z,99009.25
2022-12-31T22:49:00.700Z,99011.31
2022-12-31T22:51:54.841Z,99014.19
2022-12-31T22:54:15.267Z,99030.19
2022-12-31T22:56:42.167Z,99031.56
2022-12-31T22:59:09.370Z,99038.56
2022-12-31T23:01:36.632Z,99033.59
2022-12-31T23:04:04.379Z,99044.00
2022-12-31T23:06:31.251Z,99037.00
2022-12-31T23:09:17.140Z,99061.53
2022-12-31T23:11:46.436Z,99064.59
2022-12-31T23:14:35.693Z,99078.44
2022-12-31T23:17:29.899Z,99089.16
2022-12-31T23:20:18.353Z,99098.88
2022-12-31T23:23:05.242Z,99113.53
2022-12-31T23:25:33.853Z,99149.84
2022-12-31T23:28:01.323Z,99158.03
2022-12-31T23:30:28.435Z,99171.31
2022-12-31T23:32:55.355Z,99216.81
2022-12-31T23:35:22.297Z,99211.56
2022-12-31T23:37:49.029Z,99254.53
2022-12-31T23:40:21.128Z,99275.84
2022-12-31T23:42:49.744Z,99316.94
2022-12-31T23:45:16.844Z,99340.47
2022-12-31T23:47:43.587Z,99369.97
2022-12-31T23:50:10.349Z,99402.59
2022-12-31T23:52:37.126Z,99438.50
2022-12-31T23:55:04.467Z,99464.03
2022-12-31T23:57:31.455Z,99476.84
2022-12-31T23:59:58.180Z,99509.19
